createdAt,value
2023-04-30T04:55:14.007Z,10.35
2023-04-30T05:00:18.499Z,11.45
2023-04-30T05:05:21.983Z,9.70
2023-04-30T05:10:26.845Z,9.30
2023-04-30T05:15:31.112Z,8.55
2023-04-30T05:20:34.605Z,7.03
2023-04-30T05:25:39.919Z,7.70
2023-04-30T05:30:43.362Z,7.82
2023-04-30T05:35:46.853Z,7.75
2023-04-30T05:40:51.744Z,7.15
2023-04-30T05:45:55.215Z,7.45
2023-04-30T05:50:58.657Z,7.15
2023-04-30T05:56:03.946Z,7.60
2023-04-30T06:01:11.009Z,8.00
2023-04-30T06:06:14.800Z,9.20
2023-04-30T06:11:19.628Z,7.00
2023-04-30T06:16:23.172Z,6.07
2023-04-30T06:21:26.897Z,6.90
2023-04-30T06:26:32.118Z,7.60
2023-04-30T06:31:36.210Z,6.60
2023-04-30T06:36:39.686Z,6.90
2023-04-30T06:41:44.716Z,6.35
2023-04-30T06:46:48.237Z,6.38
2023-04-30T06:51:51.617Z,6.10
2023-04-30T06:56:56.427Z,6.40
2023-04-30T07:01:59.911Z,6.05
2023-04-30T07:07:03.436Z,6.72
2023-04-30T07:12:08.920Z,6.43
2023-04-30T07:17:12.466Z,6.05
2023-04-30T07:22:40.835Z,6.22
2023-04-30T07:27:46.066Z,11.98
2023-04-30T07:32:50.581Z,6.63
2023-04-30T07:37:54.038Z,5.18
2023-04-30T07:42:59.095Z,4.75
2023-04-30T07:48:03.065Z,5.47
2023-04-30T07:53:09.397Z,5.38
2023-04-30T07:58:14.232Z,4.95
2023-04-30T08:03:20.084Z,4.55
2023-04-30T08:08:23.755Z,4.47
2023-04-30T08:13:28.638Z,4.00
2023-04-30T08:18:32.545Z,3.55
2023-04-30T08:23:36.051Z,4.18
2023-04-30T08:28:40.960Z,4.20
2023-04-30T08:33:44.709Z,4.07
2023-04-30T08:38:48.287Z,3.47
2023-04-30T08:43:54.724Z,3.40
2023-04-30T08:48:58.773Z,4.20
2023-04-30T08:54:02.233Z,3.85
2023-04-30T08:59:07.114Z,3.20
2023-04-30T09:04:10.771Z,3.70
2023-04-30T09:09:15.503Z,3.60
2023-04-30T09:14:27.251Z,3.42
2023-04-30T09:19:32.169Z,3.22
2023-04-30T09:24:48.076Z,2.78
2023-04-30T09:29:53.037Z,5.55
2023-04-30T09:34:57.235Z,2.60
2023-04-30T09:40:00.978Z,2.00
2023-04-30T09:45:08.155Z,2.55
2023-04-30T09:50:15.085Z,2.78
2023-04-30T09:55:19.547Z,3.50
2023-04-30T10:00:24.917Z,3.00
2023-04-30T10:05:28.949Z,2.80
2023-04-30T10:10:33.552Z,2.22
2023-04-30T10:15:41.298Z,3.25
2023-04-30T10:20:48.171Z,3.20
2023-04-30T10:25:52.956Z,2.45
2023-04-30T10:30:58.530Z,2.40
2023-04-30T10:36:06.592Z,2.70
2023-04-30T10:41:10.672Z,2.70
2023-04-30T10:46:23.804Z,3.50
2023-04-30T10:51:46.445Z,5.22
2023-04-30T10:56:52.849Z,2.88
2023-04-30T11:02:02.255Z,2.47
2023-04-30T11:07:12.226Z,2.45
2023-04-30T11:12:16.958Z,2.10
2023-04-30T11:17:26.271Z,2.45
2023-04-30T11:22:35.932Z,2.03
2023-04-30T11:27:43.124Z,1.95
2023-04-30T11:32:50.254Z,1.85
2023-04-30T11:37:57.301Z,1.95
2023-04-30T11:43:00.747Z,1.95
2023-04-30T11:48:06.173Z,1.77
2023-04-30T11:53:11.433Z,2.45
2023-04-30T11:58:15.046Z,1.73
2023-04-30T12:03:20.066Z,2.20
2023-04-30T12:08:24.186Z,1.70
2023-04-30T12:13:27.606Z,2.75
2023-04-30T12:18:34.570Z,1.50
2023-04-30T12:23:38.612Z,1.60
2023-04-30T12:28:42.098Z,1.42
2023-04-30T12:33:55.183Z,1.80
2023-04-30T12:44:21.227Z,1.80
2023-04-30T12:49:27.528Z,1.70
2023-04-30T12:54:32.793Z,3.22
2023-04-30T12:59:39.958Z,1.33
2023-04-30T13:04:45.633Z,1.70
2023-04-30T13:09:49.172Z,1.52
2023-04-30T13:14:52.858Z,1.90
2023-04-30T13:19:57.731Z,1.42
2023-04-30T13:25:01.145Z,1.58
2023-04-30T13:30:05.579Z,1.65
2023-04-30T13:35:11.840Z,1.65
2023-04-30T13:40:15.994Z,1.55
2023-04-30T13:45:19.567Z,1.60
2023-04-30T13:50:24.850Z,1.50
2023-04-30T13:55:28.442Z,1.65
2023-04-30T14:00:31.985Z,1.85
2023-04-30T14:05:37.454Z,1.85
2023-04-30T14:10:40.918Z,1.95
2023-04-30T14:15:44.370Z,1.98
2023-04-30T14:20:49.489Z,2.08
2023-04-30T14:25:54.202Z,2.20
2023-04-30T14:30:57.686Z,1.52
2023-04-30T14:36:02.924Z,1.20
2023-04-30T14:41:07.052Z,1.38
2023-04-30T14:46:11.820Z,1.60
2023-04-30T14:51:16.873Z,1.30
2023-04-30T14:56:20.970Z,1.45
2023-04-30T15:01:25.150Z,1.30
2023-04-30T15:06:31.798Z,1.73
2023-04-30T15:11:35.257Z,1.60
2023-04-30T15:16:39.391Z,1.42
2023-04-30T15:21:44.967Z,1.38
2023-04-30T15:26:51.185Z,1.77
2023-04-30T15:31:54.966Z,1.40
2023-04-30T15:37:00.064Z,1.83
2023-04-30T15:42:03.728Z,1.60
2023-04-30T15:47:07.616Z,1.77
2023-04-30T15:52:12.769Z,2.03
2023-04-30T15:57:16.230Z,1.60
2023-04-30T16:02:19.824Z,1.38
2023-04-30T16:07:24.794Z,1.40
2023-04-30T16:12:28.351Z,1.80
2023-04-30T16:17:32.669Z,1.95
2023-04-30T16:22:37.598Z,2.15
2023-04-30T16:27:41.281Z,1.73
2023-04-30T16:32:45.308Z,1.90
2023-04-30T16:37:50.173Z,1.42
2023-04-30T16:42:53.937Z,1.65
2023-04-30T16:47:57.660Z,1.90
2023-04-30T16:53:04.681Z,1.90
2023-04-30T16:58:08.365Z,2.00
2023-04-30T17:03:12.112Z,2.63
2023-04-30T17:08:17.274Z,2.30
2023-04-30T17:13:20.814Z,1.98
2023-04-30T17:18:24.486Z,1.90
2023-04-30T17:23:29.333Z,2.70
2023-04-30T17:28:34.055Z,3.28
2023-04-30T17:33:37.839Z,2.90
2023-04-30T17:38:43.018Z,1.92
2023-04-30T17:43:46.504Z,1.98
2023-04-30T17:48:49.912Z,2.53
2023-04-30T17:53:55.327Z,3.25
2023-04-30T17:58:59.906Z,2.78
2023-04-30T18:04:03.849Z,2.67
2023-04-30T18:09:08.770Z,3.63
2023-04-30T18:14:12.577Z,5.00
2023-04-30T18:19:18.092Z,4.35
2023-04-30T18:24:27.599Z,4.82
2023-04-30T18:29:30.975Z,6.00
2023-04-30T18:34:34.791Z,8.13
2023-04-30T18:39:39.577Z,10.00
2023-04-30T18:44:43.416Z,8.27
2023-04-30T18:49:47.084Z,8.90
2023-04-30T18:54:52.272Z,9.10
2023-04-30T18:59:56.301Z,12.45
2023-04-30T19:05:00.192Z,11.25
2023-04-30T19:10:05.683Z,7.32
2023-04-30T19:15:11.689Z,6.05
2023-04-30T19:20:16.097Z,6.45
2023-04-30T19:25:20.974Z,9.55
2023-04-30T19:30:24.529Z,7.97
2023-04-30T19:35:28.157Z,7.35
2023-04-30T19:40:32.893Z,10.45
2023-04-30T19:45:36.470Z,10.10
2023-04-30T19:50:42.688Z,9.25
2023-04-30T19:55:47.613Z,10.88
2023-04-30T20:00:51.039Z,11.15
2023-04-30T20:05:54.509Z,11.90
2023-04-30T20:11:00.761Z,11.18
2023-04-30T20:16:05.427Z,9.82
2023-04-30T20:21:10.009Z,10.13
2023-04-30T20:26:15.027Z,8.13
2023-04-30T20:31:18.896Z,9.68
2023-04-30T20:36:22.572Z,8.40
2023-04-30T20:41:28.545Z,9.30
2023-04-30T20:46:34.494Z,8.52
2023-04-30T20:51:39.242Z,8.95
2023-04-30T20:56:46.772Z,8.27
2023-04-30T21:01:50.268Z,7.95
2023-04-30T21:06:54.045Z,10.10
2023-04-30T21:11:59.521Z,13.38
2023-04-30T21:17:03.387Z,16.27
2023-04-30T21:22:06.871Z,18.55
2023-04-30T21:27:12.128Z,19.05
2023-04-30T21:32:15.496Z,20.73
2023-04-30T21:37:18.950Z,21.00
2023-04-30T21:42:23.797Z,20.70
2023-04-30T21:47:27.275Z,19.48
2023-04-30T21:52:31.499Z,19.85
2023-04-30T21:57:36.734Z,21.75
2023-04-30T22:02:40.261Z,22.90
2023-04-30T22:07:43.835Z,20.02
2023-04-30T22:12:48.923Z,21.02
2023-04-30T22:17:52.564Z,19.40
2023-04-30T22:22:55.985Z,19.48
2023-04-30T22:28:00.801Z,19.80
